sensor_id;sensor_type;location;lat;lon;timestamp;P1;durP1;ratioP1;P2;durP2;ratioP2
8046;SDS011;67150;42.516;23.358;2023-07-08T00:00:19;5.80;;;5.10;;
8046;SDS011;67150;42.516;23.358;2023-07-08T00:02:48;5.50;;;4.97;;
8046;SDS011;67150;42.516;23.358;2023-07-08T00:05:17;5.73;;;5.13;;
8046;SDS011;67150;42.516;23.358;2023-07-08T00:07:46;5.63;;;5.13;;
8046;SDS011;67150;42.516;23.358;2023-07-08T00:10:16;5.90;;;5.40;;
8046;SDS011;67150;42.516;23.358;2023-07-08T00:12:45;5.57;;;5.07;;
8046;SDS011;67150;42.516;23.358;2023-07-08T00:15:15;5.50;;;5.00;;
8046;SDS011;67150;42.516;23.358;2023-07-08T00:17:43;5.87;;;5.37;;
8046;SDS011;67150;42.516;23.358;2023-07-08T00:20:14;5.90;;;5.30;;
8046;SDS011;67150;42.516;23.358;2023-07-08T00:22:44;6.50;;;5.73;;
8046;SDS011;67150;42.516;23.358;2023-07-08T00:25:17;5.70;;;5.10;;
8046;SDS011;67150;42.516;23.358;2023-07-08T00:27:45;5.53;;;5.03;;
8046;SDS011;67150;42.516;23.358;2023-07-08T00:30:18;6.10;;;5.50;;
8046;SDS011;67150;42.516;23.358;2023-07-08T00:32:47;6.97;;;5.63;;
8046;SDS011;67150;42.516;23.358;2023-07-08T00:35:20;5.83;;;5.33;;
8046;SDS011;67150;42.516;23.358;2023-07-08T00:37:52;5.63;;;5.13;;
8046;SDS011;67150;42.516;23.358;2023-07-08T00:40:29;6.40;;;5.80;;
8046;SDS011;67150;42.516;23.358;2023-07-08T00:42:58;6.23;;;5.13;;
8046;SDS011;67150;42.516;23.358;2023-07-08T00:45:32;5.77;;;5.23;;
8046;SDS011;67150;42.516;23.358;2023-07-08T00:48:11;5.90;;;5.40;;
8046;SDS011;67150;42.516;23.358;2023-07-08T00:50:46;5.93;;;5.43;;
8046;SDS011;67150;42.516;23.358;2023-07-08T00:56:01;5.53;;;5.13;;
8046;SDS011;67150;42.516;23.358;2023-07-08T00:58:33;6.20;;;5.60;;
8046;SDS011;67150;42.516;23.358;2023-07-08T01:01:05;6.53;;;5.33;;
8046;SDS011;67150;42.516;23.358;2023-07-08T01:03:35;6.37;;;5.77;;
8046;SDS011;67150;42.516;23.358;2023-07-08T01:06:10;5.83;;;5.33;;
8046;SDS011;67150;42.516;23.358;2023-07-08T01:08:38;5.83;;;5.30;;
8046;SDS011;67150;42.516;23.358;2023-07-08T01:11:07;6.20;;;5.50;;
8046;SDS011;67150;42.516;23.358;2023-07-08T01:13:35;6.50;;;5.37;;
8046;SDS011;67150;42.516;23.358;2023-07-08T01:16:06;6.97;;;5.60;;
8046;SDS011;67150;42.516;23.358;2023-07-08T01:18:34;7.70;;;6.00;;
8046;SDS011;67150;42.516;23.358;2023-07-08T01:21:03;6.60;;;5.87;;
8046;SDS011;67150;42.516;23.358;2023-07-08T01:23:34;6.00;;;5.50;;
8046;SDS011;67150;42.516;23.358;2023-07-08T01:26:03;5.80;;;5.30;;
8046;SDS011;67150;42.516;23.358;2023-07-08T01:28:30;6.40;;;5.77;;
8046;SDS011;67150;42.516;23.358;2023-07-08T01:30:58;6.80;;;6.10;;
8046;SDS011;67150;42.516;23.358;2023-07-08T01:33:27;6.60;;;6.00;;
8046;SDS011;67150;42.516;23.358;2023-07-08T01:35:54;6.47;;;5.97;;
8046;SDS011;67150;42.516;23.358;2023-07-08T01:38:23;7.13;;;6.47;;
8046;SDS011;67150;42.516;23.358;2023-07-08T01:40:55;6.33;;;5.83;;
8046;SDS011;67150;42.516;23.358;2023-07-08T01:43:23;6.90;;;6.30;;
8046;SDS011;67150;42.516;23.358;2023-07-08T01:45:52;6.80;;;6.20;;
8046;SDS011;67150;42.516;23.358;2023-07-08T01:48:21;6.97;;;6.37;;
8046;SDS011;67150;42.516;23.358;2023-07-08T01:50:50;7.40;;;6.80;;
8046;SDS011;67150;42.516;23.358;2023-07-08T01:53:26;7.20;;;6.50;;
8046;SDS011;67150;42.516;23.358;2023-07-08T01:55:57;7.43;;;6.80;;
8046;SDS011;67150;42.516;23.358;2023-07-08T01:58:25;7.33;;;6.63;;
8046;SDS011;67150;42.516;23.358;2023-07-08T02:00:53;7.33;;;6.63;;
8046;SDS011;67150;42.516;23.358;2023-07-08T02:03:21;7.33;;;6.50;;
8046;SDS011;67150;42.516;23.358;2023-07-08T02:05:48;7.90;;;7.20;;
8046;SDS011;67150;42.516;23.358;2023-07-08T02:08:16;7.27;;;6.57;;
8046;SDS011;67150;42.516;23.358;2023-07-08T02:10:44;7.60;;;6.90;;
8046;SDS011;67150;42.516;23.358;2023-07-08T02:13:18;7.60;;;6.90;;
8046;SDS011;67150;42.516;23.358;2023-07-08T02:15:45;7.63;;;6.93;;
8046;SDS011;67150;42.516;23.358;2023-07-08T02:18:13;7.80;;;7.17;;
8046;SDS011;67150;42.516;23.358;2023-07-08T02:20:40;7.20;;;6.50;;
8046;SDS011;67150;42.516;23.358;2023-07-08T02:23:09;7.37;;;6.77;;
8046;SDS011;67150;42.516;23.358;2023-07-08T02:25:36;8.30;;;7.50;;
8046;SDS011;67150;42.516;23.358;2023-07-08T02:28:04;8.03;;;7.27;;
8046;SDS011;67150;42.516;23.358;2023-07-08T02:30:33;7.70;;;7.00;;
8046;SDS011;67150;42.516;23.358;2023-07-08T02:33:00;8.03;;;7.33;;
8046;SDS011;67150;42.516;23.358;2023-07-08T02:35:28;8.23;;;7.53;;
8046;SDS011;67150;42.516;23.358;2023-07-08T02:37:57;7.33;;;6.77;;
8046;SDS011;67150;42.516;23.358;2023-07-08T02:40:25;7.83;;;7.03;;
8046;SDS011;67150;42.516;23.358;2023-07-08T02:42:52;7.63;;;7.03;;
8046;SDS011;67150;42.516;23.358;2023-07-08T02:45:20;7.97;;;7.27;;
8046;SDS011;67150;42.516;23.358;2023-07-08T02:47:48;7.90;;;7.20;;
8046;SDS011;67150;42.516;23.358;2023-07-08T02:50:16;7.87;;;7.17;;
8046;SDS011;67150;42.516;23.358;2023-07-08T02:52:44;7.60;;;6.73;;
8046;SDS011;67150;42.516;23.358;2023-07-08T02:55:11;6.90;;;6.30;;
8046;SDS011;67150;42.516;23.358;2023-07-08T02:57:39;7.77;;;7.17;;
8046;SDS011;67150;42.516;23.358;2023-07-08T03:00:06;8.07;;;7.37;;
8046;SDS011;67150;42.516;23.358;2023-07-08T03:02:34;8.30;;;7.50;;
8046;SDS011;67150;42.516;23.358;2023-07-08T03:05:03;8.10;;;7.40;;
8046;SDS011;67150;42.516;23.358;2023-07-08T03:07:32;7.93;;;7.23;;
8046;SDS011;67150;42.516;23.358;2023-07-08T03:09:59;8.13;;;7.30;;
8046;SDS011;67150;42.516;23.358;2023-07-08T03:12:27;8.40;;;7.57;;
8046;SDS011;67150;42.516;23.358;2023-07-08T03:14:54;8.43;;;7.63;;
8046;SDS011;67150;42.516;23.358;2023-07-08T03:17:21;7.70;;;7.10;;
8046;SDS011;67150;42.516;23.358;2023-07-08T03:19:49;8.03;;;7.33;;
8046;SDS011;67150;42.516;23.358;2023-07-08T03:22:18;7.73;;;7.07;;
8046;SDS011;67150;42.516;23.358;2023-07-08T03:24:45;8.10;;;7.43;;
8046;SDS011;67150;42.516;23.358;2023-07-08T03:27:13;8.63;;;7.83;;
8046;SDS011;67150;42.516;23.358;2023-07-08T03:29:40;8.10;;;7.40;;
8046;SDS011;67150;42.516;23.358;2023-07-08T03:32:07;9.23;;;8.33;;
8046;SDS011;67150;42.516;23.358;2023-07-08T03:34:37;8.27;;;7.60;;
8046;SDS011;67150;42.516;23.358;2023-07-08T03:37:05;7.90;;;7.30;;
8046;SDS011;67150;42.516;23.358;2023-07-08T03:39:34;8.27;;;7.57;;
8046;SDS011;67150;42.516;23.358;2023-07-08T03:42:01;7.50;;;6.90;;
8046;SDS011;67150;42.516;23.358;2023-07-08T03:44:30;7.90;;;7.30;;
8046;SDS011;67150;42.516;23.358;2023-07-08T03:46:57;8.33;;;7.53;;
8046;SDS011;67150;42.516;23.358;2023-07-08T03:49:24;8.33;;;7.63;;
8046;SDS011;67150;42.516;23.358;2023-07-08T03:51:52;8.30;;;7.60;;
8046;SDS011;67150;42.516;23.358;2023-07-08T03:54:20;9.20;;;8.37;;
8046;SDS011;67150;42.516;23.358;2023-07-08T03:56:51;8.80;;;7.90;;
8046;SDS011;67150;42.516;23.358;2023-07-08T03:59:18;8.40;;;7.70;;
8046;SDS011;67150;42.516;23.358;2023-07-08T04:01:45;8.40;;;7.70;;
8046;SDS011;67150;42.516;23.358;2023-07-08T04:04:14;8.10;;;7.43;;
8046;SDS011;67150;42.516;23.358;2023-07-08T04:06:42;8.60;;;7.80;;
8046;SDS011;67150;42.516;23.358;2023-07-08T04:09:10;7.70;;;7.10;;
8046;SDS011;67150;42.516;23.358;2023-07-08T04:11:39;7.80;;;7.20;;
8046;SDS011;67150;42.516;23.358;2023-07-08T04:14:09;8.60;;;7.90;;
8046;SDS011;67150;42.516;23.358;2023-07-08T04:16:42;8.43;;;7.63;;
8046;SDS011;67150;42.516;23.358;2023-07-08T04:19:14;8.63;;;7.93;;
8046;SDS011;67150;42.516;23.358;2023-07-08T04:21:42;8.60;;;7.90;;
8046;SDS011;67150;42.516;23.358;2023-07-08T04:24:10;8.47;;;7.77;;
8046;SDS011;67150;42.516;23.358;2023-07-08T04:26:38;9.13;;;8.23;;
8046;SDS011;67150;42.516;23.358;2023-07-08T04:29:10;8.17;;;7.47;;
8046;SDS011;67150;42.516;23.358;2023-07-08T04:31:38;8.23;;;7.53;;
8046;SDS011;67150;42.516;23.358;2023-07-08T04:34:07;8.27;;;7.57;;
8046;SDS011;67150;42.516;23.358;2023-07-08T04:36:35;7.87;;;7.27;;
8046;SDS011;67150;42.516;23.358;2023-07-08T04:39:04;8.27;;;7.57;;
8046;SDS011;67150;42.516;23.358;2023-07-08T04:41:33;7.83;;;7.20;;
8046;SDS011;67150;42.516;23.358;2023-07-08T04:44:05;8.40;;;7.70;;
8046;SDS011;67150;42.516;23.358;2023-07-08T04:46:36;8.23;;;7.53;;
8046;SDS011;67150;42.516;23.358;2023-07-08T04:49:06;7.80;;;7.20;;
8046;SDS011;67150;42.516;23.358;2023-07-08T04:51:35;8.03;;;7.33;;
8046;SDS011;67150;42.516;23.358;2023-07-08T04:54:03;8.20;;;7.60;;
8046;SDS011;67150;42.516;23.358;2023-07-08T04:56:35;7.83;;;7.23;;
8046;SDS011;67150;42.516;23.358;2023-07-08T04:59:04;8.50;;;7.80;;
8046;SDS011;67150;42.516;23.358;2023-07-08T05:01:32;7.90;;;7.20;;
8046;SDS011;67150;42.516;23.358;2023-07-08T05:04:02;8.30;;;7.60;;
8046;SDS011;67150;42.516;23.358;2023-07-08T05:06:30;7.90;;;7.30;;
8046;SDS011;67150;42.516;23.358;2023-07-08T05:08:58;7.80;;;7.20;;
8046;SDS011;67150;42.516;23.358;2023-07-08T05:11:27;8.07;;;7.47;;
8046;SDS011;67150;42.516;23.358;2023-07-08T05:13:55;7.97;;;7.37;;
8046;SDS011;67150;42.516;23.358;2023-07-08T05:16:24;7.73;;;7.13;;
8046;SDS011;67150;42.516;23.358;2023-07-08T05:18:53;7.63;;;7.03;;
8046;SDS011;67150;42.516;23.358;2023-07-08T05:21:20;7.70;;;7.10;;
8046;SDS011;67150;42.516;23.358;2023-07-08T05:23:48;8.17;;;7.50;;
8046;SDS011;67150;42.516;23.358;2023-07-08T05:26:16;7.77;;;7.17;;
8046;SDS011;67150;42.516;23.358;2023-07-08T05:28:43;7.67;;;7.07;;
8046;SDS011;67150;42.516;23.358;2023-07-08T05:31:11;7.97;;;7.37;;
8046;SDS011;67150;42.516;23.358;2023-07-08T05:33:38;7.67;;;6.90;;
8046;SDS011;67150;42.516;23.358;2023-07-08T05:36:07;7.40;;;6.77;;
8046;SDS011;67150;42.516;23.358;2023-07-08T05:38:34;7.97;;;7.33;;
8046;SDS011;67150;42.516;23.358;2023-07-08T05:41:02;7.13;;;6.63;;
8046;SDS011;67150;42.516;23.358;2023-07-08T05:43:29;6.83;;;6.33;;
8046;SDS011;67150;42.516;23.358;2023-07-08T05:45:57;7.30;;;6.70;;
8046;SDS011;67150;42.516;23.358;2023-07-08T05:48:25;7.40;;;6.70;;
8046;SDS011;67150;42.516;23.358;2023-07-08T05:50:53;7.30;;;6.70;;
8046;SDS011;67150;42.516;23.358;2023-07-08T05:53:23;7.30;;;6.60;;
8046;SDS011;67150;42.516;23.358;2023-07-08T05:55:50;7.53;;;6.93;;
8046;SDS011;67150;42.516;23.358;2023-07-08T05:58:18;7.27;;;6.67;;
8046;SDS011;67150;42.516;23.358;2023-07-08T06:00:45;7.77;;;7.17;;
8046;SDS011;67150;42.516;23.358;2023-07-08T06:03:13;7.03;;;6.53;;
8046;SDS011;67150;42.516;23.358;2023-07-08T06:05:40;7.33;;;6.63;;
8046;SDS011;67150;42.516;23.358;2023-07-08T06:08:09;7.03;;;6.53;;
8046;SDS011;67150;42.516;23.358;2023-07-08T06:10:42;7.37;;;6.80;;
8046;SDS011;67150;42.516;23.358;2023-07-08T06:13:10;7.20;;;6.60;;
8046;SDS011;67150;42.516;23.358;2023-07-08T06:15:37;6.70;;;6.20;;
8046;SDS011;67150;42.516;23.358;2023-07-08T06:18:05;7.00;;;6.50;;
8046;SDS011;67150;42.516;23.358;2023-07-08T06:20:32;6.60;;;6.00;;
8046;SDS011;67150;42.516;23.358;2023-07-08T06:23:00;7.00;;;6.50;;
8046;SDS011;67150;42.516;23.358;2023-07-08T06:25:28;6.83;;;6.33;;
8046;SDS011;67150;42.516;23.358;2023-07-08T06:27:57;6.60;;;6.10;;
8046;SDS011;67150;42.516;23.358;2023-07-08T06:30:24;6.50;;;6.00;;
8046;SDS011;67150;42.516;23.358;2023-07-08T06:32:51;6.63;;;6.13;;
8046;SDS011;67150;42.516;23.358;2023-07-08T06:35:19;6.77;;;6.17;;
8046;SDS011;67150;42.516;23.358;2023-07-08T06:37:47;6.80;;;6.20;;
8046;SDS011;67150;42.516;23.358;2023-07-08T06:40:14;6.57;;;6.07;;
8046;SDS011;67150;42.516;23.358;2023-07-08T06:42:43;6.37;;;5.87;;
8046;SDS011;67150;42.516;23.358;2023-07-08T06:45:12;6.57;;;6.07;;
8046;SDS011;67150;42.516;23.358;2023-07-08T06:47:39;7.30;;;6.70;;
8046;SDS011;67150;42.516;23.358;2023-07-08T06:50:07;6.43;;;5.93;;
8046;SDS011;67150;42.516;23.358;2023-07-08T06:52:35;6.10;;;5.60;;
8046;SDS011;67150;42.516;23.358;2023-07-08T06:55:03;6.97;;;6.37;;
8046;SDS011;67150;42.516;23.358;2023-07-08T06:57:34;6.90;;;6.40;;
8046;SDS011;67150;42.516;23.358;2023-07-08T07:00:03;6.43;;;5.93;;
8046;SDS011;67150;42.516;23.358;2023-07-08T07:02:34;6.50;;;5.63;;
8046;SDS011;67150;42.516;23.358;2023-07-08T07:05:01;6.60;;;6.10;;
8046;SDS011;67150;42.516;23.358;2023-07-08T07:07:29;6.20;;;5.70;;
8046;SDS011;67150;42.516;23.358;2023-07-08T07:09:57;6.67;;;6.17;;
8046;SDS011;67150;42.516;23.358;2023-07-08T07:12:24;5.70;;;5.30;;
8046;SDS011;67150;42.516;23.358;2023-07-08T07:14:52;6.10;;;5.60;;
8046;SDS011;67150;42.516;23.358;2023-07-08T07:17:20;6.00;;;5.60;;
8046;SDS011;67150;42.516;23.358;2023-07-08T07:19:49;6.17;;;5.77;;
8046;SDS011;67150;42.516;23.358;2023-07-08T07:22:16;6.23;;;5.73;;
8046;SDS011;67150;42.516;23.358;2023-07-08T07:24:44;6.13;;;5.70;;
8046;SDS011;67150;42.516;23.358;2023-07-08T07:27:11;6.37;;;5.77;;
8046;SDS011;67150;42.516;23.358;2023-07-08T07:29:40;6.17;;;5.67;;
8046;SDS011;67150;42.516;23.358;2023-07-08T07:32:09;6.20;;;5.70;;
8046;SDS011;67150;42.516;23.358;2023-07-08T07:34:37;6.23;;;5.73;;
8046;SDS011;67150;42.516;23.358;2023-07-08T07:37:06;6.07;;;5.57;;
8046;SDS011;67150;42.516;23.358;2023-07-08T07:39:38;6.30;;;5.80;;
8046;SDS011;67150;42.516;23.358;2023-07-08T07:42:06;6.47;;;5.97;;
8046;SDS011;67150;42.516;23.358;2023-07-08T07:44:33;5.73;;;5.33;;
8046;SDS011;67150;42.516;23.358;2023-07-08T07:47:01;6.20;;;5.70;;
8046;SDS011;67150;42.516;23.358;2023-07-08T07:49:29;5.80;;;5.40;;
8046;SDS011;67150;42.516;23.358;2023-07-08T07:51:57;6.40;;;5.80;;
8046;SDS011;67150;42.516;23.358;2023-07-08T07:54:26;6.23;;;5.73;;
8046;SDS011;67150;42.516;23.358;2023-07-08T07:56:53;6.00;;;5.50;;
8046;SDS011;67150;42.516;23.358;2023-07-08T07:59:21;6.43;;;5.87;;
8046;SDS011;67150;42.516;23.358;2023-07-08T08:01:49;6.03;;;5.53;;
8046;SDS011;67150;42.516;23.358;2023-07-08T08:04:16;6.20;;;5.70;;
8046;SDS011;67150;42.516;23.358;2023-07-08T08:06:44;6.30;;;5.70;;
8046;SDS011;67150;42.516;23.358;2023-07-08T08:09:12;5.90;;;5.50;;
8046;SDS011;67150;42.516;23.358;2023-07-08T08:11:41;6.87;;;5.70;;
8046;SDS011;67150;42.516;23.358;2023-07-08T08:14:09;6.40;;;5.90;;
8046;SDS011;67150;42.516;23.358;2023-07-08T08:16:36;6.40;;;5.80;;
8046;SDS011;67150;42.516;23.358;2023-07-08T08:19:03;6.27;;;5.77;;
8046;SDS011;67150;42.516;23.358;2023-07-08T08:21:31;6.07;;;5.67;;
8046;SDS011;67150;42.516;23.358;2023-07-08T08:23:58;6.53;;;6.03;;
8046;SDS011;67150;42.516;23.358;2023-07-08T08:26:26;6.40;;;5.90;;
8046;SDS011;67150;42.516;23.358;2023-07-08T08:28:55;8.53;;;5.83;;
8046;SDS011;67150;42.516;23.358;2023-07-08T08:31:25;6.87;;;5.70;;
8046;SDS011;67150;42.516;23.358;2023-07-08T08:33:52;6.40;;;5.90;;
8046;SDS011;67150;42.516;23.358;2023-07-08T08:36:19;6.60;;;6.00;;
8046;SDS011;67150;42.516;23.358;2023-07-08T08:38:47;5.93;;;5.53;;
8046;SDS011;67150;42.516;23.358;2023-07-08T08:41:15;6.43;;;5.93;;
8046;SDS011;67150;42.516;23.358;2023-07-08T08:43:44;5.77;;;5.37;;
8046;SDS011;67150;42.516;23.358;2023-07-08T08:46:18;6.27;;;5.83;;
8046;SDS011;67150;42.516;23.358;2023-07-08T08:48:56;6.07;;;5.60;;
8046;SDS011;67150;42.516;23.358;2023-07-08T08:51:30;5.93;;;5.50;;
8046;SDS011;67150;42.516;23.358;2023-07-08T08:53:58;5.90;;;5.40;;
8046;SDS011;67150;42.516;23.358;2023-07-08T08:56:27;6.10;;;5.50;;
8046;SDS011;67150;42.516;23.358;2023-07-08T08:58:58;5.50;;;5.10;;
8046;SDS011;67150;42.516;23.358;2023-07-08T09:01:35;6.03;;;5.57;;
8046;SDS011;67150;42.516;23.358;2023-07-08T09:04:03;5.70;;;5.30;;
8046;SDS011;67150;42.516;23.358;2023-07-08T09:06:35;6.20;;;5.70;;
8046;SDS011;67150;42.516;23.358;2023-07-08T09:09:05;5.40;;;5.00;;
8046;SDS011;67150;42.516;23.358;2023-07-08T09:11:42;5.70;;;5.20;;
8046;SDS011;67150;42.516;23.358;2023-07-08T09:14:18;6.07;;;5.30;;
8046;SDS011;67150;42.516;23.358;2023-07-08T09:16:55;6.00;;;5.50;;
8046;SDS011;67150;42.516;23.358;2023-07-08T09:19:33;5.90;;;5.40;;
8046;SDS011;67150;42.516;23.358;2023-07-08T09:22:07;5.90;;;5.30;;
8046;SDS011;67150;42.516;23.358;2023-07-08T09:24:41;5.90;;;5.40;;
8046;SDS011;67150;42.516;23.358;2023-07-08T09:27:11;5.30;;;4.90;;
8046;SDS011;67150;42.516;23.358;2023-07-08T09:29:38;5.90;;;5.50;;
8046;SDS011;67150;42.516;23.358;2023-07-08T09:32:14;5.90;;;5.40;;
8046;SDS011;67150;42.516;23.358;2023-07-08T09:34:45;6.07;;;5.57;;
8046;SDS011;67150;42.516;23.358;2023-07-08T09:37:23;5.47;;;4.97;;
8046;SDS011;67150;42.516;23.358;2023-07-08T09:39:53;5.50;;;5.00;;
8046;SDS011;67150;42.516;23.358;2023-07-08T09:42:22;5.80;;;5.30;;
8046;SDS011;67150;42.516;23.358;2023-07-08T09:44:56;6.57;;;5.43;;
8046;SDS011;67150;42.516;23.358;2023-07-08T09:47:27;5.40;;;5.00;;
8046;SDS011;67150;42.516;23.358;2023-07-08T09:49:59;5.83;;;5.23;;
8046;SDS011;67150;42.516;23.358;2023-07-08T09:52:29;6.13;;;5.63;;
8046;SDS011;67150;42.516;23.358;2023-07-08T09:54:57;5.53;;;5.03;;
8046;SDS011;67150;42.516;23.358;2023-07-08T09:57:26;5.47;;;5.07;;
8046;SDS011;67150;42.516;23.358;2023-07-08T09:59:57;5.53;;;5.10;;
8046;SDS011;67150;42.516;23.358;2023-07-08T10:02:31;5.83;;;5.40;;
8046;SDS011;67150;42.516;23.358;2023-07-08T10:05:00;5.30;;;4.90;;
8046;SDS011;67150;42.516;23.358;2023-07-08T10:07:34;5.00;;;4.70;;
8046;SDS011;67150;42.516;23.358;2023-07-08T10:10:04;5.60;;;5.17;;
8046;SDS011;67150;42.516;23.358;2023-07-08T10:12:35;5.30;;;4.90;;
8046;SDS011;67150;42.516;23.358;2023-07-08T10:15:07;5.70;;;5.00;;
8046;SDS011;67150;42.516;23.358;2023-07-08T10:17:43;5.77;;;5.37;;
8046;SDS011;67150;42.516;23.358;2023-07-08T10:20:11;5.50;;;5.10;;
8046;SDS011;67150;42.516;23.358;2023-07-08T10:22:41;5.57;;;5.07;;
8046;SDS011;67150;42.516;23.358;2023-07-08T10:25:20;4.70;;;4.40;;
8046;SDS011;67150;42.516;23.358;2023-07-08T10:27:56;5.33;;;4.93;;
8046;SDS011;67150;42.516;23.358;2023-07-08T10:30:30;5.17;;;4.77;;
8046;SDS011;67150;42.516;23.358;2023-07-08T10:33:10;5.23;;;4.77;;
8046;SDS011;67150;42.516;23.358;2023-07-08T10:35:54;5.43;;;5.03;;
8046;SDS011;67150;42.516;23.358;2023-07-08T10:38:40;4.83;;;4.50;;
8046;SDS011;67150;42.516;23.358;2023-07-08T10:41:17;5.50;;;5.10;;
8046;SDS011;67150;42.516;23.358;2023-07-08T10:43:59;5.20;;;4.60;;
8046;SDS011;67150;42.516;23.358;2023-07-08T10:46:34;5.40;;;5.00;;
8046;SDS011;67150;42.516;23.358;2023-07-08T10:49:15;5.53;;;5.03;;
8046;SDS011;67150;42.516;23.358;2023-07-08T10:51:57;5.20;;;4.80;;
8046;SDS011;67150;42.516;23.358;2023-07-08T10:54:47;5.23;;;4.80;;
8046;SDS011;67150;42.516;23.358;2023-07-08T10:57:33;5.00;;;4.60;;
8046;SDS011;67150;42.516;23.358;2023-07-08T11:00:14;5.67;;;5.17;;
8046;SDS011;67150;42.516;23.358;2023-07-08T11:06:01;4.93;;;4.53;;
8046;SDS011;67150;42.516;23.358;2023-07-08T11:08:35;4.87;;;4.53;;
8046;SDS011;67150;42.516;23.358;2023-07-08T11:11:08;5.10;;;4.70;;
8046;SDS011;67150;42.516;23.358;2023-07-08T11:13:44;5.07;;;4.67;;
8046;SDS011;67150;42.516;23.358;2023-07-08T11:16:16;4.80;;;4.40;;
8046;SDS011;67150;42.516;23.358;2023-07-08T11:18:54;4.90;;;4.50;;
8046;SDS011;67150;42.516;23.358;2023-07-08T11:21:29;5.00;;;4.60;;
8046;SDS011;67150;42.516;23.358;2023-07-08T11:24:02;5.37;;;4.93;;
8046;SDS011;67150;42.516;23.358;2023-07-08T11:26:40;5.60;;;5.20;;
8046;SDS011;67150;42.516;23.358;2023-07-08T11:29:13;4.90;;;4.50;;
8046;SDS011;67150;42.516;23.358;2023-07-08T11:31:45;5.17;;;4.67;;
8046;SDS011;67150;42.516;23.358;2023-07-08T11:34:14;4.90;;;4.60;;
8046;SDS011;67150;42.516;23.358;2023-07-08T11:36:45;4.80;;;4.50;;
8046;SDS011;67150;42.516;23.358;2023-07-08T11:39:28;5.10;;;4.70;;
8046;SDS011;67150;42.516;23.358;2023-07-08T11:42:13;5.30;;;4.90;;
8046;SDS011;67150;42.516;23.358;2023-07-08T11:44:47;5.10;;;4.70;;
8046;SDS011;67150;42.516;23.358;2023-07-08T11:47:19;5.13;;;4.70;;
8046;SDS011;67150;42.516;23.358;2023-07-08T11:49:52;5.10;;;4.70;;
8046;SDS011;67150;42.516;23.358;2023-07-08T11:52:23;4.80;;;4.50;;
8046;SDS011;67150;42.516;23.358;2023-07-08T11:54:55;5.03;;;4.63;;
8046;SDS011;67150;42.516;23.358;2023-07-08T11:57:27;4.60;;;4.23;;
8046;SDS011;67150;42.516;23.358;2023-07-08T12:00:11;4.80;;;4.40;;
8046;SDS011;67150;42.516;23.358;2023-07-08T12:02:50;4.67;;;4.37;;
8046;SDS011;67150;42.516;23.358;2023-07-08T12:05:29;5.17;;;4.70;;
8046;SDS011;67150;42.516;23.358;2023-07-08T12:08:00;4.77;;;4.37;;
8046;SDS011;67150;42.516;23.358;2023-07-08T12:10:32;4.70;;;4.40;;
8046;SDS011;67150;42.516;23.358;2023-07-08T12:13:02;4.50;;;4.20;;
8046;SDS011;67150;42.516;23.358;2023-07-08T12:15:31;4.90;;;4.50;;
8046;SDS011;67150;42.516;23.358;2023-07-08T12:18:00;4.60;;;4.20;;
8046;SDS011;67150;42.516;23.358;2023-07-08T12:20:34;4.50;;;4.20;;
8046;SDS011;67150;42.516;23.358;2023-07-08T12:23:09;4.93;;;4.57;;
8046;SDS011;67150;42.516;23.358;2023-07-08T12:25:38;5.03;;;4.63;;
8046;SDS011;67150;42.516;23.358;2023-07-08T12:28:06;5.00;;;4.60;;
8046;SDS011;67150;42.516;23.358;2023-07-08T12:30:37;5.43;;;5.00;;
8046;SDS011;67150;42.516;23.358;2023-07-08T12:33:09;4.97;;;4.57;;
8046;SDS011;67150;42.516;23.358;2023-07-08T12:35:39;5.20;;;4.80;;
8046;SDS011;67150;42.516;23.358;2023-07-08T12:38:12;4.50;;;4.20;;
8046;SDS011;67150;42.516;23.358;2023-07-08T12:40:46;4.73;;;4.43;;
8046;SDS011;67150;42.516;23.358;2023-07-08T12:43:14;4.70;;;4.40;;
8046;SDS011;67150;42.516;23.358;2023-07-08T12:45:43;4.87;;;4.47;;
8046;SDS011;67150;42.516;23.358;2023-07-08T12:48:11;5.20;;;4.80;;
8046;SDS011;67150;42.516;23.358;2023-07-08T12:50:38;5.10;;;4.70;;
8046;SDS011;67150;42.516;23.358;2023-07-08T12:53:06;4.93;;;4.53;;
8046;SDS011;67150;42.516;23.358;2023-07-08T12:55:39;6.00;;;4.93;;
8046;SDS011;67150;42.516;23.358;2023-07-08T12:58:12;5.17;;;4.17;;
8046;SDS011;67150;42.516;23.358;2023-07-08T13:00:46;5.20;;;4.80;;
8046;SDS011;67150;42.516;23.358;2023-07-08T13:03:17;5.00;;;4.60;;
8046;SDS011;67150;42.516;23.358;2023-07-08T13:05:47;5.13;;;4.73;;
8046;SDS011;67150;42.516;23.358;2023-07-08T13:08:17;6.93;;;4.67;;
8046;SDS011;67150;42.516;23.358;2023-07-08T13:10:49;5.10;;;4.60;;
8046;SDS011;67150;42.516;23.358;2023-07-08T13:13:20;4.97;;;4.57;;
8046;SDS011;67150;42.516;23.358;2023-07-08T13:15:50;4.80;;;4.40;;
8046;SDS011;67150;42.516;23.358;2023-07-08T13:18:20;4.43;;;4.13;;
8046;SDS011;67150;42.516;23.358;2023-07-08T13:20:52;4.53;;;4.23;;
8046;SDS011;67150;42.516;23.358;2023-07-08T13:23:21;4.40;;;4.10;;
8046;SDS011;67150;42.516;23.358;2023-07-08T13:25:51;4.57;;;4.27;;
8046;SDS011;67150;42.516;23.358;2023-07-08T13:28:24;4.87;;;4.47;;
8046;SDS011;67150;42.516;23.358;2023-07-08T13:30:55;4.67;;;4.37;;
8046;SDS011;67150;42.516;23.358;2023-07-08T13:33:28;4.53;;;4.23;;
8046;SDS011;67150;42.516;23.358;2023-07-08T13:35:56;4.50;;;4.20;;
8046;SDS011;67150;42.516;23.358;2023-07-08T13:38:25;5.30;;;4.87;;
8046;SDS011;67150;42.516;23.358;2023-07-08T13:41:01;4.77;;;4.20;;
8046;SDS011;67150;42.516;23.358;2023-07-08T13:43:30;4.77;;;4.43;;
8046;SDS011;67150;42.516;23.358;2023-07-08T13:45:59;4.67;;;4.30;;
8046;SDS011;67150;42.516;23.358;2023-07-08T13:48:27;4.50;;;4.20;;
8046;SDS011;67150;42.516;23.358;2023-07-08T13:50:56;4.77;;;4.43;;
8046;SDS011;67150;42.516;23.358;2023-07-08T13:53:26;4.53;;;4.23;;
8046;SDS011;67150;42.516;23.358;2023-07-08T13:56:15;4.33;;;4.03;;
8046;SDS011;67150;42.516;23.358;2023-07-08T13:58:47;4.57;;;4.17;;
8046;SDS011;67150;42.516;23.358;2023-07-08T14:01:18;4.30;;;4.00;;
8046;SDS011;67150;42.516;23.358;2023-07-08T14:03:47;4.80;;;4.40;;
8046;SDS011;67150;42.516;23.358;2023-07-08T14:06:14;4.60;;;4.20;;
8046;SDS011;67150;42.516;23.358;2023-07-08T14:08:42;4.33;;;4.03;;
8046;SDS011;67150;42.516;23.358;2023-07-08T14:11:10;4.67;;;4.37;;
8046;SDS011;67150;42.516;23.358;2023-07-08T14:13:39;4.63;;;4.33;;
8046;SDS011;67150;42.516;23.358;2023-07-08T14:16:23;4.83;;;4.43;;
8046;SDS011;67150;42.516;23.358;2023-07-08T14:18:52;4.50;;;4.10;;
8046;SDS011;67150;42.516;23.358;2023-07-08T14:21:21;4.70;;;4.30;;
8046;SDS011;67150;42.516;23.358;2023-07-08T14:23:48;4.50;;;4.20;;
8046;SDS011;67150;42.516;23.358;2023-07-08T14:26:16;4.53;;;4.23;;
8046;SDS011;67150;42.516;23.358;2023-07-08T14:28:45;4.17;;;3.87;;
8046;SDS011;67150;42.516;23.358;2023-07-08T14:31:14;4.47;;;4.17;;
8046;SDS011;67150;42.516;23.358;2023-07-08T14:33:44;4.10;;;3.80;;
8046;SDS011;67150;42.516;23.358;2023-07-08T14:36:11;4.43;;;4.13;;
8046;SDS011;67150;42.516;23.358;2023-07-08T14:38:39;4.20;;;3.80;;
8046;SDS011;67150;42.516;23.358;2023-07-08T14:41:07;4.50;;;4.20;;
8046;SDS011;67150;42.516;23.358;2023-07-08T14:43:34;4.30;;;4.00;;
8046;SDS011;67150;42.516;23.358;2023-07-08T14:46:08;4.77;;;4.40;;
8046;SDS011;67150;42.516;23.358;2023-07-08T14:48:37;4.30;;;4.00;;
8046;SDS011;67150;42.516;23.358;2023-07-08T14:51:05;4.13;;;3.83;;
8046;SDS011;67150;42.516;23.358;2023-07-08T14:53:33;4.87;;;4.47;;
8046;SDS011;67150;42.516;23.358;2023-07-08T14:56:01;4.50;;;4.20;;
8046;SDS011;67150;42.516;23.358;2023-07-08T14:58:43;4.30;;;4.00;;
8046;SDS011;67150;42.516;23.358;2023-07-08T15:01:16;4.33;;;4.03;;
8046;SDS011;67150;42.516;23.358;2023-07-08T15:03:46;4.10;;;3.80;;
8046;SDS011;67150;42.516;23.358;2023-07-08T15:06:13;4.17;;;3.73;;
8046;SDS011;67150;42.516;23.358;2023-07-08T15:08:41;4.33;;;4.03;;
8046;SDS011;67150;42.516;23.358;2023-07-08T15:11:08;4.17;;;3.87;;